Terminal Aerodrome Forecast
Issued by NWS Sioux Falls, SD

Home | Current Version | Previous Version | Text Only | Print | Product List | Glossary Off
Versions: 1 2 3 4 5 6 7 8 9 10 11 12 13 14 15 16 17 18

000
FTUS43 KFSD 210500
TAFHON
TAF
KHON 210520Z 2106/2206 14008KT P6SM SCT035 BKN110
     FM210900 06005KT 3SM BR BKN010
     FM211500 02005KT P6SM SCT012 BKN100
     FM211900 04005KT P6SM SCT035 SCT110
     FM220100 06005KT P6SM BKN040=

USA.gov is the U.S. government's official web portal to all federal, state and local government web resources and services.